KLEX/LEX METAR and TAF weather

Enter ICAO airport designator
Station Type Date Time Source
KLEX METAR 2021/10/22 18:54 UTC NOAA

KLEX 221854Z 29005KT 10SM OVC020 12/08 A3004 RMK AO2 SLP174 T01170083


Station Type Date Time Source
KLEX Decoded METAR 2021/10/22 18:54 UTC NOAA

LEXINGTON BLUE GRASS AIRPORT, KY, United States (KLEX) 38-02N 084-36W 300M
Oct 22, 2021 - 02:54 PM EDT / 2021.10.22 1854 UTC
Wind: from the WNW (290 degrees) at 6 MPH (5 KT):0
Visibility: 10 mile(s):0
Sky conditions: overcast
Temperature: 53.1 F (11.7 C)
Dew Point: 46.9 F (8.3 C)
Relative Humidity: 79%
Pressure (altimeter): 30.04 in. Hg (1017 hPa)
ob: KLEX 221854Z 29005KT 10SM OVC020 12/08 A3004 RMK AO2 SLP174 T01170083
cycle: 19

Station Type Date Time Source
KLEX TAF 2021/10/22 18:22 UTC NOAA

TAF KLEX 221720Z 2218/2318 VRB04KT P6SM BKN015 OVC040
FM230000 22004KT P6SM BKN025
FM230400 22005KT P6SM BKN040

Example: see airport list